SAS409F ESSA-EKCH
Flight info
| Callsign | SAS409F |
|---|---|
| Flight time | 0h 54m |
| Altitude | 38000 |
| Route | PETEV N872 ELPAX DCT TOKSI N872 ERNOV |
| Aircraft | A319/M-SDE3FGHIRWY/LB1 |
Departure
| Time | 2026-05-04 16:16 |
|---|---|
| Airport | Stockholm-Arlanda Airport (ESSA) |
Arrival
| Time | 2026-05-04 17:10 |
|---|---|
| Airport | Copenhagen Kastrup Airport (EKCH) |
| Time | Latitude | Longitude | Altitude | Speed | Heading |
|---|---|---|---|---|---|
| 2026-05-04 15:39 | 59.64702 | 17.92734 | 112 ft | 0 kts | 26° |
| 2026-05-04 16:06 | 59.64661 | 17.92702 | 110 ft | 3 kts | 9° |
| 2026-05-04 16:07 | 59.64643 | 17.92699 | 109 ft | 0 kts | 351° |
| 2026-05-04 16:11 | 59.64681 | 17.92591 | 112 ft | 9 kts | 287° |
| 2026-05-04 16:11 | 59.64701 | 17.92449 | 112 ft | 11 kts | 282° |
| 2026-05-04 16:12 | 59.64850 | 17.92089 | 107 ft | 16 kts | 12° |
| 2026-05-04 16:12 | 59.65211 | 17.92221 | 107 ft | 20 kts | 12° |
| 2026-05-04 16:13 | 59.65529 | 17.92334 | 105 ft | 26 kts | 10° |
| 2026-05-04 16:13 | 59.65763 | 17.92414 | 105 ft | 12 kts | 356° |
| 2026-05-04 16:14 | 59.65742 | 17.92169 | 108 ft | 14 kts | 218° |
| 2026-05-04 16:14 | 59.65612 | 17.92005 | 108 ft | 0 kts | 189° |
| 2026-05-04 16:15 | 59.64291 | 17.91501 | 135 ft | 145 kts | 198° |
| 2026-05-04 16:16 | 59.62664 | 17.90848 | 1224 ft | 145 kts | 195° |
| 2026-05-04 16:16 | 59.60325 | 17.86645 | 2572 ft | 191 kts | 239° |
| 2026-05-04 16:17 | 59.58776 | 17.81806 | 4022 ft | 212 kts | 240° |
| 2026-05-04 16:18 | 59.56353 | 17.73314 | 6564 ft | 253 kts | 233° |
| 2026-05-04 16:18 | 59.55155 | 17.70752 | 7629 ft | 255 kts | 230° |
| 2026-05-04 16:19 | 59.51429 | 17.63096 | 10488 ft | 272 kts | 230° |
| 2026-05-04 16:19 | 59.48624 | 17.57350 | 11577 ft | 302 kts | 230° |
| 2026-05-04 16:20 | 59.44175 | 17.48312 | 14101 ft | 311 kts | 230° |
| 2026-05-04 16:20 | 59.41132 | 17.42159 | 15641 ft | 316 kts | 230° |
| 2026-05-04 16:21 | 59.36490 | 17.32788 | 17927 ft | 324 kts | 230° |
| 2026-05-04 16:22 | 59.33313 | 17.26392 | 19234 ft | 330 kts | 230° |
| 2026-05-04 16:22 | 59.28438 | 17.16618 | 21218 ft | 338 kts | 230° |
| 2026-05-04 16:23 | 59.23438 | 17.06627 | 23114 ft | 347 kts | 231° |
| 2026-05-04 16:24 | 59.16123 | 16.93704 | 25073 ft | 363 kts | 226° |
| 2026-05-04 16:25 | 59.12234 | 16.87402 | 26012 ft | 369 kts | 226° |
| 2026-05-04 16:26 | 59.04207 | 16.74428 | 27851 ft | 381 kts | 226° |
| 2026-05-04 16:26 | 58.98008 | 16.64458 | 29183 ft | 390 kts | 226° |
| 2026-05-04 16:27 | 58.93790 | 16.57705 | 29998 ft | 396 kts | 226° |
| 2026-05-04 16:28 | 58.87345 | 16.47441 | 31048 ft | 403 kts | 226° |
| 2026-05-04 16:28 | 58.80838 | 16.37105 | 32252 ft | 405 kts | 225° |
| 2026-05-04 16:29 | 58.72151 | 16.23450 | 34169 ft | 401 kts | 225° |
| 2026-05-04 16:30 | 58.65672 | 16.13287 | 35277 ft | 401 kts | 225° |
| 2026-05-04 16:31 | 58.61341 | 16.06514 | 35958 ft | 401 kts | 224° |
| 2026-05-04 16:31 | 58.54830 | 15.96391 | 36956 ft | 402 kts | 224° |
| 2026-05-04 16:32 | 58.48304 | 15.86286 | 37728 ft | 403 kts | 223° |
| 2026-05-04 16:33 | 58.39615 | 15.72937 | 37781 ft | 401 kts | 223° |
| 2026-05-04 16:34 | 58.33082 | 15.62937 | 37785 ft | 401 kts | 223° |
| 2026-05-04 16:35 | 58.19993 | 15.43046 | 37768 ft | 401 kts | 223° |
| 2026-05-04 16:36 | 58.13472 | 15.33203 | 37762 ft | 401 kts | 223° |
| 2026-05-04 16:37 | 58.06911 | 15.23376 | 37758 ft | 401 kts | 222° |
| 2026-05-04 16:38 | 57.98131 | 15.10299 | 37774 ft | 401 kts | 222° |
| 2026-05-04 16:39 | 57.87216 | 14.94133 | 37779 ft | 400 kts | 222° |
| 2026-05-04 16:40 | 57.78447 | 14.81241 | 37790 ft | 400 kts | 222° |
| 2026-05-04 16:41 | 57.67490 | 14.65239 | 37792 ft | 400 kts | 221° |
| 2026-05-04 16:43 | 57.56530 | 14.49582 | 37803 ft | 403 kts | 213° |
| 2026-05-04 16:43 | 57.49000 | 14.42460 | 37626 ft | 405 kts | 211° |
| 2026-05-04 16:44 | 57.38917 | 14.33092 | 36535 ft | 405 kts | 212° |
| 2026-05-04 16:45 | 57.33904 | 14.28458 | 36015 ft | 405 kts | 212° |
| 2026-05-04 16:46 | 57.26283 | 14.21429 | 33925 ft | 412 kts | 212° |
| 2026-05-04 16:46 | 57.21212 | 14.16789 | 32957 ft | 401 kts | 212° |
| 2026-05-04 16:47 | 57.16254 | 14.12266 | 32016 ft | 392 kts | 212° |
| 2026-05-04 16:47 | 57.11422 | 14.07852 | 31079 ft | 384 kts | 212° |
| 2026-05-04 16:48 | 57.04347 | 14.01407 | 29675 ft | 374 kts | 212° |
| 2026-05-04 16:48 | 57.02057 | 13.99330 | 29223 ft | 369 kts | 212° |
| 2026-05-04 16:49 | 56.97493 | 13.95206 | 28347 ft | 361 kts | 211° |
| 2026-05-04 16:49 | 56.93025 | 13.91179 | 27503 ft | 355 kts | 211° |
| 2026-05-04 16:50 | 56.88613 | 13.87198 | 26696 ft | 350 kts | 211° |
| 2026-05-04 16:50 | 56.84281 | 13.83303 | 25915 ft | 344 kts | 211° |
| 2026-05-04 16:51 | 56.80057 | 13.79530 | 25173 ft | 336 kts | 210° |
| 2026-05-04 16:51 | 56.77937 | 13.77641 | 24800 ft | 333 kts | 210° |
| 2026-05-04 16:51 | 56.73853 | 13.73998 | 24103 ft | 326 kts | 210° |
| 2026-05-04 16:52 | 56.69793 | 13.70379 | 23345 ft | 322 kts | 210° |
| 2026-05-04 16:52 | 56.67786 | 13.68588 | 22952 ft | 320 kts | 210° |
| 2026-05-04 16:53 | 56.63807 | 13.65053 | 22197 ft | 317 kts | 210° |
| 2026-05-04 16:53 | 56.57913 | 13.59850 | 21035 ft | 311 kts | 209° |
| 2026-05-04 16:54 | 56.55969 | 13.58140 | 20628 ft | 310 kts | 209° |
| 2026-05-04 16:55 | 56.48314 | 13.51405 | 19053 ft | 303 kts | 209° |
| 2026-05-04 16:55 | 56.44534 | 13.48091 | 18253 ft | 301 kts | 209° |
| 2026-05-04 16:56 | 56.40782 | 13.44808 | 17424 ft | 297 kts | 208° |
| 2026-05-04 16:56 | 56.35262 | 13.40002 | 16276 ft | 291 kts | 209° |
| 2026-05-04 16:57 | 56.33444 | 13.38418 | 15893 ft | 289 kts | 209° |
| 2026-05-04 16:57 | 56.29841 | 13.35283 | 15197 ft | 286 kts | 209° |
| 2026-05-04 16:58 | 56.24513 | 13.30664 | 14066 ft | 283 kts | 209° |
| 2026-05-04 16:58 | 56.22744 | 13.29138 | 13684 ft | 282 kts | 209° |
| 2026-05-04 16:59 | 56.19220 | 13.26103 | 12899 ft | 278 kts | 209° |
| 2026-05-04 17:00 | 56.12339 | 13.20168 | 11442 ft | 270 kts | 209° |
| 2026-05-04 17:00 | 56.07297 | 13.15835 | 10374 ft | 266 kts | 209° |
| 2026-05-04 17:01 | 56.03966 | 13.12991 | 10097 ft | 266 kts | 209° |
| 2026-05-04 17:01 | 56.00615 | 13.10120 | 9449 ft | 271 kts | 209° |
| 2026-05-04 17:02 | 55.97256 | 13.07256 | 8674 ft | 266 kts | 209° |
| 2026-05-04 17:02 | 55.93945 | 13.04437 | 7778 ft | 264 kts | 209° |
| 2026-05-04 17:03 | 55.92287 | 13.03029 | 7350 ft | 263 kts | 209° |
| 2026-05-04 17:03 | 55.90643 | 13.01634 | 6943 ft | 261 kts | 209° |
| 2026-05-04 17:03 | 55.87386 | 12.98875 | 6126 ft | 258 kts | 208° |
| 2026-05-04 17:04 | 55.84185 | 12.96161 | 5283 ft | 253 kts | 208° |
| 2026-05-04 17:04 | 55.81167 | 12.93623 | 4988 ft | 229 kts | 208° |
| 2026-05-04 17:05 | 55.78375 | 12.91182 | 4322 ft | 224 kts | 216° |
| 2026-05-04 17:05 | 55.75961 | 12.87679 | 3600 ft | 223 kts | 223° |
| 2026-05-04 17:06 | 55.73689 | 12.84118 | 3008 ft | 213 kts | 223° |
| 2026-05-04 17:06 | 55.72595 | 12.82409 | 2728 ft | 206 kts | 223° |
| 2026-05-04 17:07 | 55.70566 | 12.79242 | 2215 ft | 180 kts | 222° |
| 2026-05-04 17:07 | 55.70252 | 12.78753 | 2123 ft | 175 kts | 222° |
| 2026-05-04 17:07 | 55.69056 | 12.76889 | 1813 ft | 168 kts | 222° |
| 2026-05-04 17:07 | 55.67943 | 12.75153 | 1498 ft | 151 kts | 221° |
| 2026-05-04 17:08 | 55.67434 | 12.74361 | 1366 ft | 143 kts | 221° |
| 2026-05-04 17:08 | 55.66002 | 12.72133 | 957 ft | 134 kts | 222° |
| 2026-05-04 17:08 | 55.65073 | 12.70692 | 692 ft | 133 kts | 223° |
| 2026-05-04 17:09 | 55.64383 | 12.69621 | 530 ft | 132 kts | 224° |
| 2026-05-04 17:09 | 55.63908 | 12.68910 | 410 ft | 131 kts | 223° |
| 2026-05-04 17:09 | 55.63214 | 12.67852 | 239 ft | 131 kts | 226° |
| 2026-05-04 17:10 | 55.61907 | 12.65735 | 25 ft | 113 kts | 219° |
| 2026-05-04 17:10 | 55.61225 | 12.64443 | 24 ft | 14 kts | 255° |
| 2026-05-04 17:11 | 55.61191 | 12.64261 | 25 ft | 15 kts | 260° |
| 2026-05-04 17:11 | 55.61240 | 12.64128 | 24 ft | 14 kts | 329° |
| 2026-05-04 17:11 | 55.61449 | 12.64303 | 25 ft | 20 kts | 34° |
| 2026-05-04 17:12 | 55.61566 | 12.64436 | 24 ft | 20 kts | 33° |
| 2026-05-04 17:12 | 55.61754 | 12.64652 | 26 ft | 15 kts | 33° |
| 2026-05-04 17:13 | 55.61944 | 12.64869 | 24 ft | 0 kts | 33° |
| 2026-05-04 17:14 | 55.61945 | 12.64871 | 24 ft | 0 kts | 32° |
| 2026-05-04 17:15 | 55.61946 | 12.64872 | 24 ft | 0 kts | 32° |
| 2026-05-04 17:17 | 55.61947 | 12.64873 | 24 ft | 1 kts | 32° |
| 2026-05-04 17:17 | 55.62064 | 12.65009 | 24 ft | 9 kts | 35° |
| 2026-05-04 17:18 | 55.62114 | 12.65070 | 27 ft | 9 kts | 34° |
| 2026-05-04 17:18 | 55.62227 | 12.65169 | 24 ft | 11 kts | 354° |
| 2026-05-04 17:19 | 55.62340 | 12.64905 | 24 ft | 17 kts | 303° |
| 2026-05-04 17:19 | 55.62479 | 12.64529 | 24 ft | 15 kts | 305° |
| 2026-05-04 17:20 | 55.62601 | 12.64264 | 24 ft | 12 kts | 353° |
| 2026-05-04 17:20 | 55.62742 | 12.64370 | 24 ft | 5 kts | 24° |
| 2026-05-04 17:20 | 55.62761 | 12.64420 | 24 ft | 6 kts | 82° |
| 2026-05-04 17:21 | 55.62755 | 12.64478 | 24 ft | 0 kts | 102° |
| 2026-05-04 17:21 | 55.62755 | 12.64479 | 24 ft | 0 kts | 102° |